createdAt,value
2018-12-10T00:00:32.176Z,76.72
2018-12-10T00:05:35.154Z,76.89
2018-12-10T00:10:41.514Z,77.00
2018-12-10T00:15:43.292Z,77.18
2018-12-10T00:20:46.255Z,77.41
2018-12-10T00:25:49.216Z,76.49
2018-12-10T00:30:52.191Z,77.00
2018-12-10T00:35:55.153Z,76.27
2018-12-10T00:40:58.105Z,76.08
2018-12-10T00:46:01.068Z,76.21
2018-12-10T00:51:04.179Z,76.81
2018-12-10T00:56:07.173Z,77.21
2018-12-10T01:01:10.266Z,76.75
2018-12-10T01:06:13.379Z,77.29
2018-12-10T01:11:16.393Z,77.67
2018-12-10T01:16:19.359Z,78.00
2018-12-10T01:21:22.338Z,77.51
2018-12-10T01:26:25.331Z,77.88
2018-12-10T01:31:28.343Z,78.44
2018-12-10T01:36:31.481Z,78.95
2018-12-10T01:41:34.589Z,78.93
2018-12-10T01:46:37.584Z,78.75
2018-12-10T01:51:40.600Z,78.34
2018-12-10T01:56:43.580Z,78.19
2018-12-10T02:01:46.582Z,78.40
2018-12-10T02:06:49.564Z,79.08
2018-12-10T02:11:52.599Z,78.61
2018-12-10T02:16:55.568Z,78.62
2018-12-10T02:21:58.587Z,78.94
2018-12-10T02:27:01.556Z,78.61
2018-12-10T02:32:04.540Z,78.30
2018-12-10T02:37:07.544Z,77.55
2018-12-10T02:42:10.537Z,77.34
2018-12-10T02:47:13.493Z,77.00
2018-12-10T02:52:16.456Z,77.41
2018-12-10T02:57:19.414Z,77.70
2018-12-10T03:02:22.401Z,78.48
2018-12-10T03:07:25.459Z,78.45
2018-12-10T03:17:52.899Z,76.98
2018-12-10T03:22:55.864Z,77.26
2018-12-10T03:27:58.882Z,77.71
2018-12-10T03:33:01.972Z,77.48
2018-12-10T03:38:04.933Z,77.47
2018-12-10T03:43:07.903Z,77.07
2018-12-10T03:48:11.100Z,76.96
2018-12-10T03:53:14.061Z,77.04
2018-12-10T03:58:17.027Z,77.20
2018-12-10T04:03:20.110Z,77.98
2018-12-10T04:08:23.091Z,77.61
2018-12-10T04:13:26.232Z,78.50
2018-12-10T04:18:29.431Z,77.54
2018-12-10T04:23:32.409Z,76.90
2018-12-10T04:28:35.360Z,76.84
2018-12-10T04:39:04.195Z,76.60
2018-12-10T04:44:07.149Z,77.65
2018-12-10T04:49:10.187Z,77.96
2018-12-10T04:54:13.121Z,78.41
2018-12-10T04:59:16.196Z,78.36
2018-12-10T05:04:19.144Z,77.72
2018-12-10T05:09:22.123Z,78.15
2018-12-10T05:19:49.509Z,78.73
2018-12-10T05:24:52.500Z,78.88
2018-12-10T05:29:55.505Z,78.44
2018-12-10T05:34:58.449Z,78.31
2018-12-10T05:40:01.440Z,78.87
2018-12-10T05:45:06.778Z,78.65
2018-12-10T05:50:09.788Z,78.02
2018-12-10T05:55:12.770Z,77.83
2018-12-10T06:00:15.793Z,77.83
2018-12-10T06:05:18.792Z,77.73
2018-12-10T06:10:21.833Z,77.44
2018-12-10T06:15:24.823Z,77.51
2018-12-10T06:20:27.788Z,78.12
2018-12-10T06:25:30.889Z,78.43
2018-12-10T06:35:53.819Z,78.20
2018-12-10T06:46:22.841Z,77.54
2018-12-10T06:51:25.805Z,77.44
2018-12-10T06:56:28.769Z,76.90
2018-12-10T07:01:31.732Z,77.51
2018-12-10T07:06:34.685Z,78.37
2018-12-10T07:11:37.775Z,78.81
2018-12-10T07:16:40.740Z,78.58
2018-12-10T07:21:43.739Z,79.18
2018-12-10T07:26:46.713Z,79.14
2018-12-10T07:31:49.704Z,78.70
2018-12-10T07:36:52.695Z,78.80
2018-12-10T07:41:55.664Z,78.24
2018-12-10T07:46:58.619Z,77.83
2018-12-10T07:52:01.708Z,77.80
2018-12-10T07:57:04.711Z,77.55
2018-12-10T08:02:07.819Z,77.44
2018-12-10T08:07:10.796Z,78.02
2018-12-10T08:12:13.787Z,78.25
2018-12-10T08:17:16.765Z,78.09
2018-12-10T08:22:19.747Z,78.68
2018-12-10T08:27:22.869Z,77.71
2018-12-10T08:32:25.845Z,76.08
2018-12-10T08:37:28.817Z,75.40
2018-12-10T08:42:31.812Z,75.54
2018-12-10T08:47:34.788Z,75.08
2018-12-10T08:52:37.757Z,74.21
2018-12-10T08:57:40.808Z,74.68
2018-12-10T09:08:03.723Z,75.80
2018-12-10T09:18:26.908Z,74.70
2018-12-10T09:23:30.548Z,73.86
2018-12-10T09:28:34.126Z,73.97
2018-12-10T09:33:38.011Z,74.39
2018-12-10T09:38:41.527Z,74.60
2018-12-10T09:43:45.119Z,74.46
2018-12-10T09:48:49.693Z,74.26
2018-12-10T09:53:53.443Z,72.91
2018-12-10T09:58:57.123Z,72.25
2018-12-10T10:04:00.510Z,72.34
2018-12-10T10:09:06.441Z,72.49
2018-12-10T10:14:10.324Z,72.46
2018-12-10T10:24:33.980Z,71.60
2018-12-10T10:29:37.630Z,72.35
2018-12-10T10:34:41.417Z,76.35
2018-12-10T10:39:45.087Z,79.81
2018-12-10T10:44:48.786Z,81.02
2018-12-10T10:49:52.680Z,82.01
2018-12-10T10:54:56.514Z,82.88
2018-12-10T11:00:00.294Z,82.78
2018-12-10T11:05:04.254Z,81.61
2018-12-10T11:10:08.090Z,79.65
2018-12-10T11:15:11.970Z,77.06
2018-12-10T11:20:15.828Z,76.36
2018-12-10T11:30:38.312Z,76.38
2018-12-10T11:35:42.005Z,76.66
2018-12-10T11:40:45.862Z,75.34
2018-12-10T11:45:49.638Z,75.11
2018-12-10T12:01:35.314Z,74.58
2018-12-10T12:06:38.321Z,74.80
2018-12-10T12:11:41.379Z,74.33
2018-12-10T12:16:44.444Z,74.01
2018-12-10T12:21:47.455Z,73.47
2018-12-10T12:26:50.625Z,73.15
2018-12-10T12:31:53.604Z,73.65
2018-12-10T12:36:56.613Z,73.63
2018-12-10T12:41:59.613Z,73.44
2018-12-10T12:47:02.730Z,74.07
2018-12-10T12:52:05.727Z,73.17
2018-12-10T12:57:08.828Z,72.80
2018-12-10T13:02:11.922Z,71.52
2018-12-10T13:07:14.925Z,70.61
2018-12-10T13:12:17.929Z,69.68
2018-12-10T13:17:21.106Z,70.18
2018-12-10T13:22:24.099Z,70.22
2018-12-10T13:27:27.054Z,70.39
2018-12-10T13:32:30.080Z,71.11
2018-12-10T13:37:33.039Z,71.20
2018-12-10T13:42:36.012Z,70.89
2018-12-10T13:47:38.965Z,70.16
2018-12-10T13:58:02.686Z,70.63
2018-12-10T14:03:07.058Z,70.99
2018-12-10T14:08:10.794Z,71.24
2018-12-10T14:13:14.428Z,71.42
2018-12-10T14:18:18.095Z,71.38
2018-12-10T14:23:21.680Z,71.68
2018-12-10T14:28:25.201Z,71.70
2018-12-10T14:33:28.560Z,72.08
2018-12-10T14:38:31.912Z,72.89
2018-12-10T14:43:35.494Z,73.12
2018-12-10T14:54:03.404Z,72.98
2018-12-10T14:59:06.366Z,72.96
2018-12-10T15:04:09.341Z,72.66
2018-12-10T15:14:31.742Z,73.70
2018-12-10T15:19:35.586Z,74.05
2018-12-10T15:24:38.857Z,73.95
2018-12-10T15:29:42.897Z,74.51
2018-12-10T15:34:47.016Z,74.64
2018-12-10T15:39:50.538Z,74.89
2018-12-10T15:44:54.260Z,74.22
2018-12-10T15:49:58.000Z,74.11
2018-12-10T15:55:02.715Z,74.56
2018-12-10T16:05:28.456Z,75.56
2018-12-10T16:10:31.467Z,76.21
2018-12-10T16:15:34.530Z,76.26
2018-12-10T16:20:37.621Z,77.47
2018-12-10T16:25:40.782Z,77.99
2018-12-10T16:30:44.109Z,78.54
2018-12-10T16:41:02.785Z,78.55
2018-12-10T16:46:08.586Z,79.28
2018-12-10T16:51:11.936Z,80.17
2018-12-10T16:56:14.916Z,81.58
2018-12-10T17:01:17.877Z,82.07
2018-12-10T17:06:20.904Z,82.17
2018-12-10T17:11:24.017Z,82.12
2018-12-10T17:16:26.978Z,82.24
2018-12-10T17:21:29.973Z,82.62
2018-12-10T17:26:33.582Z,81.87
2018-12-10T17:31:36.588Z,81.50
2018-12-10T17:36:39.588Z,81.72
2018-12-10T17:41:42.767Z,81.69
2018-12-10T17:46:45.763Z,80.92
2018-12-10T17:51:48.850Z,81.34
2018-12-10T17:56:51.802Z,80.78
2018-12-10T18:01:54.909Z,81.07
2018-12-10T18:06:57.869Z,80.98
2018-12-10T18:12:02.793Z,82.05
2018-12-10T18:17:08.126Z,82.02
2018-12-10T18:22:11.198Z,82.33
2018-12-10T18:27:14.287Z,81.52
2018-12-10T18:32:17.252Z,82.04
2018-12-10T18:37:20.913Z,82.27
2018-12-10T18:42:24.084Z,82.06
2018-12-10T18:52:47.927Z,81.90
2018-12-10T18:57:52.492Z,81.67
2018-12-10T19:02:57.677Z,81.82
2018-12-10T19:08:02.661Z,81.44
2018-12-10T19:13:08.343Z,81.70
2018-12-10T19:18:18.289Z,81.50
2018-12-10T19:23:21.848Z,81.82
2018-12-10T19:28:26.987Z,81.69
2018-12-10T19:33:36.965Z,81.55
2018-12-10T19:38:40.391Z,81.80
2018-12-10T19:43:46.373Z,81.28
2018-12-10T19:48:51.885Z,80.35
2018-12-10T19:59:22.440Z,80.48
2018-12-10T20:04:26.914Z,80.74
2018-12-10T20:14:57.544Z,82.14
2018-12-10T20:20:03.326Z,82.28
2018-12-10T20:25:07.720Z,82.48
2018-12-10T20:30:26.292Z,82.90
2018-12-10T20:40:54.395Z,81.61
2018-12-10T20:45:58.994Z,81.53
2018-12-10T20:51:04.467Z,81.11
2018-12-10T20:56:09.381Z,80.42
2018-12-10T21:01:14.157Z,80.48
2018-12-10T21:06:24.498Z,80.58
2018-12-10T21:11:29.779Z,81.05
2018-12-10T21:16:35.032Z,80.48
2018-12-10T21:27:10.130Z,80.49
2018-12-10T21:32:14.480Z,79.93
2018-12-10T21:37:20.751Z,79.55
2018-12-10T21:42:32.007Z,79.58
2018-12-10T21:47:36.950Z,79.60
2018-12-10T21:52:41.388Z,79.57
2018-12-10T21:57:46.135Z,79.61
2018-12-10T22:02:51.918Z,79.90
2018-12-10T22:08:03.604Z,80.15
2018-12-10T22:13:08.871Z,79.71
2018-12-10T22:18:13.312Z,78.67
2018-12-10T22:23:18.334Z,78.14
2018-12-10T22:28:23.643Z,77.81
2018-12-10T22:33:28.909Z,78.66
2018-12-10T22:38:33.817Z,79.30
2018-12-10T22:43:38.794Z,79.36
2018-12-10T22:48:43.643Z,79.30
2018-12-10T22:53:48.896Z,78.83
2018-12-10T22:58:54.168Z,79.23
2018-12-10T23:03:58.851Z,79.44
2018-12-10T23:09:04.720Z,79.95
2018-12-10T23:14:09.698Z,80.51
2018-12-10T23:19:14.416Z,79.97
2018-12-10T23:24:19.838Z,80.35
2018-12-10T23:29:25.412Z,80.22
2018-12-10T23:34:30.117Z,79.93
2018-12-10T23:39:36.006Z,79.24
2018-12-10T23:44:46.388Z,78.75
2018-12-10T23:49:51.496Z,77.71
2018-12-10T23:54:55.672Z,78.82
